Time;durP1;ratioP1;P1;durP2;ratioP2;P2;SDS_P1;SDS_P2;PMS_P1;PMS_P2;Temp;Humidity;BMP_temperature;BMP_pressure;BME280_temperature;BME280_humidity;BME280_pressure;Samples;Min_cycle;Max_cycle;Signal;HPM_P1;HPM_P2
2021/08/07 00:02:25;;;;;;;14.05;2.28;;;16.60;81.00;;;;;;5090379;28;20040;-85
2021/08/07 00:04:52;;;;;;;21.50;2.97;;;16.70;81.00;;;;;;5089963;28;20139;-86
2021/08/07 00:07:19;;;;;;;4.97;1.60;;;16.70;81.00;;;;;;5089819;28;20036;-85
2021/08/07 00:09:46;;;;;;;9.05;2.10;;;16.70;81.00;;;;;;5089525;28;20407;-85
2021/08/07 00:12:12;;;;;;;9.10;2.25;;;16.70;81.00;;;;;;5090041;28;20094;-87
2021/08/07 00:14:39;;;;;;;14.05;2.25;;;16.70;81.00;;;;;;5087566;28;20056;-88
2021/08/07 00:17:06;;;;;;;10.75;1.80;;;16.80;81.00;;;;;;5089891;28;20062;-85
2021/08/07 00:19:34;;;;;;;8.07;2.20;;;16.80;81.00;;;;;;5089700;28;20093;-86
2021/08/07 00:22:01;;;;;;;17.13;2.38;;;16.70;81.00;;;;;;5087624;28;20052;-85
2021/08/07 00:24:28;;;;;;;12.02;1.75;;;16.80;81.00;;;;;;5089428;28;20098;-86
2021/08/07 00:26:55;;;;;;;9.77;2.10;;;16.80;81.00;;;;;;5090654;28;20106;-85
2021/08/07 00:29:22;;;;;;;10.77;2.30;;;16.80;81.00;;;;;;5089640;28;20098;-85
2021/08/07 00:31:49;;;;;;;8.90;2.00;;;16.80;80.90;;;;;;5088616;28;20052;-85
2021/08/07 00:34:16;;;;;;;9.93;1.90;;;16.80;80.90;;;;;;5088313;28;20039;-84
2021/08/07 00:36:43;;;;;;;9.43;2.25;;;16.80;80.90;;;;;;5091812;28;20036;-86
2021/08/07 00:39:10;;;;;;;7.03;2.03;;;16.80;80.90;;;;;;5093115;28;20114;-86
2021/08/07 00:41:37;;;;;;;11.85;2.03;;;16.80;80.90;;;;;;5095479;28;20105;-88
2021/08/07 00:44:04;;;;;;;9.45;2.10;;;16.70;80.90;;;;;;5093082;28;20509;-87
2021/08/07 00:46:30;;;;;;;8.32;2.45;;;16.80;80.90;;;;;;5093156;28;20044;-87
2021/08/07 00:48:57;;;;;;;10.18;2.05;;;16.70;80.90;;;;;;5093070;28;20074;-87
2021/08/07 00:51:24;;;;;;;9.05;2.30;;;16.70;81.00;;;;;;5093167;28;20040;-87
2021/08/07 00:53:51;;;;;;;10.35;2.15;;;16.60;81.00;;;;;;5093805;28;20098;-86
2021/08/07 00:56:18;;;;;;;9.88;2.53;;;16.60;81.00;;;;;;5094347;28;20044;-86
2021/08/07 00:58:45;;;;;;;12.82;2.00;;;16.60;81.10;;;;;;5092628;28;20505;-86
2021/08/07 01:01:14;;;;;;;9.27;1.80;;;16.60;81.10;;;;;;5087586;28;20036;-86
2021/08/07 01:03:52;;;;;;;17.75;2.50;;;16.50;81.20;;;;;;5094438;28;20146;-86
2021/08/07 01:06:45;;;;;;;13.20;2.58;;;16.50;81.20;;;;;;5078006;28;20040;-85
2021/08/07 01:09:41;;;;;;;9.43;1.80;;;16.40;81.30;;;;;;5075932;28;20044;-86
2021/08/07 01:12:35;;;;;;;11.88;2.20;;;16.40;81.30;;;;;;5091957;28;20563;-85
2021/08/07 01:15:04;;;;;;;7.95;2.03;;;16.40;81.40;;;;;;5092536;28;20056;-88
2021/08/07 01:17:32;;;;;;;9.02;2.30;;;16.40;81.50;;;;;;5094825;28;20131;-87
2021/08/07 01:20:09;;;;;;;11.93;2.45;;;16.40;81.60;;;;;;5092790;28;20101;-88
2021/08/07 01:23:11;;;;;;;10.40;2.10;;;16.30;81.60;;;;;;5093551;28;20071;-88
2021/08/07 01:26:10;;;;;;;15.82;2.25;;;16.30;81.70;;;;;;5090216;28;20044;-84
2021/08/07 01:28:39;;;;;;;11.07;2.95;;;16.30;81.70;;;;;;5092300;28;20044;-86
2021/08/07 01:31:10;;;;;;;8.13;2.10;;;16.30;81.90;;;;;;5093813;28;20048;-86
2021/08/07 01:33:38;;;;;;;12.77;2.35;;;16.20;81.90;;;;;;5092618;28;20048;-88
2021/08/07 01:36:05;;;;;;;13.80;2.20;;;16.20;81.90;;;;;;5092657;28;20102;-86
2021/08/07 01:38:33;;;;;;;9.23;2.35;;;16.20;82.00;;;;;;5088995;28;20451;-86
2021/08/07 01:40:59;;;;;;;7.05;2.00;;;16.10;82.10;;;;;;5092968;28;20078;-86
2021/08/07 01:43:26;;;;;;;10.63;2.35;;;16.10;82.20;;;;;;5093593;28;20044;-85
2021/08/07 01:45:53;;;;;;;5.00;1.95;;;16.10;82.20;;;;;;5091279;28;20052;-86
2021/08/07 01:48:39;;;;;;;10.55;2.22;;;16.10;82.20;;;;;;5088962;28;20505;-85
2021/08/07 01:51:29;;;;;;;8.73;2.50;;;16.10;82.20;;;;;;5094163;28;20119;-86
2021/08/07 01:53:59;;;;;;;12.60;2.88;;;16.10;82.20;;;;;;5074109;28;20498;-85
2021/08/07 01:56:31;;;;;;;11.98;2.22;;;16.10;82.20;;;;;;5092137;28;20101;-88
2021/08/07 01:59:10;;;;;;;11.90;2.38;;;16.10;82.20;;;;;;5091774;28;20109;-89
2021/08/07 02:01:38;;;;;;;7.10;2.25;;;16.20;82.20;;;;;;5091776;28;20102;-88
2021/08/07 02:04:06;;;;;;;17.15;2.53;;;16.20;82.20;;;;;;5090450;28;20403;-88
2021/08/07 02:06:34;;;;;;;9.38;2.30;;;16.20;82.10;;;;;;5091371;28;20056;-89
2021/08/07 02:09:02;;;;;;;9.52;2.10;;;16.20;82.10;;;;;;5091367;28;20051;-88
2021/08/07 02:11:29;;;;;;;11.23;2.00;;;16.20;82.00;;;;;;5092404;28;20040;-88
2021/08/07 02:13:57;;;;;;;6.60;2.20;;;16.20;82.00;;;;;;5090203;28;20102;-87
2021/08/07 02:16:26;;;;;;;14.70;2.40;;;16.20;82.00;;;;;;5091474;28;20112;-86
2021/08/07 02:18:54;;;;;;;15.90;2.78;;;16.20;82.10;;;;;;5091463;28;20136;-89
2021/08/07 02:21:21;;;;;;;11.05;2.28;;;16.20;82.10;;;;;;5089094;28;20098;-88
2021/08/07 02:23:49;;;;;;;17.05;2.75;;;16.20;82.10;;;;;;5092481;28;20044;-89
2021/08/07 02:26:17;;;;;;;11.60;2.45;;;16.20;82.10;;;;;;5092491;28;20048;-87
2021/08/07 02:28:44;;;;;;;7.43;2.33;;;16.20;82.10;;;;;;5091609;28;20051;-87
2021/08/07 02:31:12;;;;;;;12.85;2.63;;;16.20;82.00;;;;;;5093269;28;20051;-87
2021/08/07 02:33:39;;;;;;;11.30;2.50;;;16.20;82.00;;;;;;5093336;28;20044;-88
2021/08/07 02:36:09;;;;;;;10.27;3.03;;;16.20;82.00;;;;;;5090828;28;20052;-87
2021/08/07 02:38:36;;;;;;;11.02;2.42;;;16.20;82.10;;;;;;5093378;28;20494;-87
2021/08/07 02:41:04;;;;;;;9.18;2.22;;;16.10;82.00;;;;;;5089119;28;20452;-87
2021/08/07 02:43:31;;;;;;;9.00;1.95;;;16.10;82.00;;;;;;5091894;28;20093;-87
2021/08/07 02:46:00;;;;;;;15.35;2.60;;;16.20;81.90;;;;;;5092090;28;20052;-87
2021/08/07 02:48:27;;;;;;;14.73;2.67;;;16.20;81.90;;;;;;5092322;28;20456;-87
2021/08/07 02:50:55;;;;;;;10.05;2.15;;;16.20;81.80;;;;;;5091305;28;20101;-88
2021/08/07 02:53:23;;;;;;;16.88;2.40;;;16.20;81.80;;;;;;5092946;28;20067;-88
2021/08/07 02:55:50;;;;;;;7.35;2.25;;;16.10;81.80;;;;;;5093152;28;20452;-87
2021/08/07 02:58:18;;;;;;;14.98;2.45;;;16.10;81.80;;;;;;5088634;28;20097;-88
2021/08/07 03:00:45;;;;;;;14.23;2.40;;;16.10;81.80;;;;;;5092032;28;20551;-87
2021/08/07 03:03:12;;;;;;;10.65;2.33;;;16.10;81.70;;;;;;5074969;28;20040;-87
2021/08/07 03:05:39;;;;;;;16.13;2.50;;;16.00;81.70;;;;;;5072567;28;20045;-87
2021/08/07 03:08:06;;;;;;;9.25;2.05;;;16.10;81.70;;;;;;5087907;28;20048;-86
2021/08/07 03:10:33;;;;;;;14.73;2.20;;;16.00;81.60;;;;;;5091789;28;20055;-87
2021/08/07 03:13:02;;;;;;;15.80;2.38;;;16.00;81.50;;;;;;5088995;28;20398;-87
2021/08/07 03:15:29;;;;;;;8.57;2.30;;;16.00;81.40;;;;;;5088474;28;20106;-88
2021/08/07 03:17:57;;;;;;;5.95;2.30;;;15.90;81.40;;;;;;5092851;28;20048;-86
2021/08/07 03:20:33;;;;;;;4.75;1.83;;;15.90;81.20;;;;;;5085960;28;20490;-88
2021/08/07 03:23:02;;;;;;;6.40;1.80;;;15.90;81.20;;;;;;5087692;28;20440;-88
2021/08/07 03:25:29;;;;;;;9.77;2.38;;;15.90;81.20;;;;;;5092623;28;20093;-87
2021/08/07 03:27:57;;;;;;;13.25;2.38;;;15.90;81.10;;;;;;5090314;28;20048;-87
2021/08/07 03:30:25;;;;;;;12.10;2.53;;;15.90;81.10;;;;;;5092666;28;20123;-88
2021/08/07 03:32:52;;;;;;;7.90;2.08;;;15.90;81.00;;;;;;5092461;28;20181;-88
2021/08/07 03:35:19;;;;;;;14.98;2.63;;;15.80;81.00;;;;;;5090279;28;20074;-88
2021/08/07 03:37:46;;;;;;;8.40;1.92;;;15.80;81.00;;;;;;5088052;28;20101;-88
2021/08/07 03:40:14;;;;;;;8.95;2.33;;;15.80;81.00;;;;;;5090302;28;20040;-88
2021/08/07 03:42:41;;;;;;;10.25;2.10;;;15.80;81.00;;;;;;5091271;28;20067;-89
2021/08/07 03:45:09;;;;;;;9.20;2.00;;;15.70;80.90;;;;;;5088797;28;20113;-87
2021/08/07 03:47:50;;;;;;;10.23;2.17;;;15.70;80.80;;;;;;5091559;28;20047;-88
2021/08/07 03:50:19;;;;;;;5.47;1.80;;;15.60;80.80;;;;;;5089509;28;20421;-87
2021/08/07 03:52:47;;;;;;;9.18;2.35;;;15.60;80.80;;;;;;5087945;28;20044;-88
2021/08/07 03:55:14;;;;;;;9.60;2.20;;;15.60;80.70;;;;;;5087926;28;20506;-88
2021/08/07 03:57:56;;;;;;;7.18;2.13;;;15.60;80.70;;;;;;5090236;28;20097;-90
2021/08/07 04:00:25;;;;;;;6.65;2.05;;;15.50;80.60;;;;;;5072469;28;20044;-88
2021/08/07 04:02:53;;;;;;;7.32;1.98;;;15.50;80.50;;;;;;5087091;28;20052;-89
2021/08/07 04:05:20;;;;;;;12.63;2.20;;;15.40;80.50;;;;;;5091583;28;20520;-87
2021/08/07 04:07:47;;;;;;;18.33;2.70;;;15.40;80.50;;;;;;5091331;28;20078;-87
2021/08/07 04:10:16;;;;;;;8.63;2.53;;;15.40;80.50;;;;;;5091393;28;20101;-88
2021/08/07 04:12:43;;;;;;;8.50;2.42;;;15.30;80.60;;;;;;5093859;28;20117;-87
2021/08/07 04:15:11;;;;;;;9.38;2.25;;;15.30;80.80;;;;;;5092794;28;20109;-87
2021/08/07 04:17:39;;;;;;;15.30;3.40;;;15.20;81.00;;;;;;5095678;28;20105;-88
2021/08/07 04:20:08;;;;;;;7.20;2.88;;;15.20;81.30;;;;;;5094489;28;20048;-88
2021/08/07 04:22:36;;;;;;;8.05;2.97;;;15.20;81.40;;;;;;5092239;28;20048;-89
2021/08/07 04:25:05;;;;;;;10.27;2.83;;;15.10;81.60;;;;;;5093698;28;20513;-87
2021/08/07 04:27:31;;;;;;;9.20;2.92;;;15.10;81.70;;;;;;5092390;28;20403;-87
2021/08/07 04:29:58;;;;;;;7.68;2.80;;;15.00;81.80;;;;;;5093612;28;20059;-89
2021/08/07 04:32:25;;;;;;;22.50;3.90;;;15.00;81.90;;;;;;5109564;27;20044;-87
2021/08/07 04:34:52;;;;;;;10.27;3.03;;;15.00;82.00;;;;;;5092293;28;20052;-87
2021/08/07 04:37:19;;;;;;;8.73;2.92;;;14.90;82.10;;;;;;5091275;28;20036;-88
2021/08/07 04:39:46;;;;;;;9.27;3.05;;;14.90;82.20;;;;;;5091517;28;20566;-87
2021/08/07 04:42:13;;;;;;;18.90;5.05;;;14.90;82.20;;;;;;5091559;28;20098;-88
2021/08/07 04:44:40;;;;;;;10.52;3.20;;;14.90;82.20;;;;;;5091263;28;20059;-88
2021/08/07 04:47:07;;;;;;;6.00;2.90;;;14.90;82.30;;;;;;5091016;28;20051;-88
2021/08/07 04:49:34;;;;;;;19.70;3.10;;;14.90;82.30;;;;;;5090933;28;20039;-87
2021/08/07 04:52:02;;;;;;;13.27;3.42;;;14.90;82.30;;;;;;5091756;28;20101;-88
2021/08/07 04:54:30;;;;;;;13.65;3.13;;;14.90;82.40;;;;;;5090117;28;20048;-88
2021/08/07 04:56:57;;;;;;;17.60;2.90;;;14.90;82.40;;;;;;5093670;28;20048;-88
2021/08/07 04:59:24;;;;;;;8.20;2.53;;;14.90;82.40;;;;;;5091977;28;20056;-89
2021/08/07 05:01:51;;;;;;;9.85;2.80;;;14.80;82.40;;;;;;5090427;28;20048;-90
2021/08/07 05:04:18;;;;;;;9.70;2.50;;;14.80;82.40;;;;;;5090707;28;20105;-88
2021/08/07 05:06:45;;;;;;;20.45;2.83;;;14.80;82.40;;;;;;5092974;28;20048;-87
2021/08/07 05:09:12;;;;;;;15.70;2.45;;;14.70;82.40;;;;;;5077139;28;20104;-87
2021/08/07 05:11:39;;;;;;;11.75;2.83;;;14.80;82.50;;;;;;5090561;28;20085;-88
2021/08/07 05:14:06;;;;;;;12.80;2.67;;;14.70;82.50;;;;;;5090480;28;20098;-86
2021/08/07 05:16:33;;;;;;;18.85;2.60;;;14.70;82.50;;;;;;5090280;28;20053;-88
2021/08/07 05:19:00;;;;;;;13.57;2.72;;;14.70;82.50;;;;;;5091618;28;20087;-87
2021/08/07 05:21:27;;;;;;;21.05;2.80;;;14.70;82.50;;;;;;5092771;28;20048;-87
2021/08/07 05:23:54;;;;;;;16.63;2.42;;;14.70;82.50;;;;;;5092166;28;20468;-86
2021/08/07 05:26:21;;;;;;;16.88;3.13;;;14.70;82.50;;;;;;5094104;28;20055;-88
2021/08/07 05:28:48;;;;;;;13.82;2.95;;;14.60;82.50;;;;;;5089805;28;20055;-90
2021/08/07 05:31:15;;;;;;;15.40;2.47;;;14.70;82.50;;;;;;5090295;28;20077;-88
2021/08/07 05:33:42;;;;;;;8.15;2.55;;;14.70;82.50;;;;;;5092400;28;20040;-87
2021/08/07 05:36:08;;;;;;;8.15;2.50;;;14.60;82.50;;;;;;5090924;28;20051;-87
2021/08/07 05:38:35;;;;;;;20.55;2.50;;;14.60;82.60;;;;;;5093903;28;20052;-88
2021/08/07 05:41:02;;;;;;;11.30;2.78;;;14.60;82.70;;;;;;5090029;28;20073;-89
2021/08/07 05:43:29;;;;;;;14.65;2.17;;;14.60;82.70;;;;;;5089602;28;20101;-92
2021/08/07 05:45:56;;;;;;;10.90;2.30;;;14.60;82.80;;;;;;5090799;28;20047;-88
2021/08/07 05:48:23;;;;;;;9.15;2.40;;;14.60;82.80;;;;;;5092218;28;20072;-89
2021/08/07 05:50:50;;;;;;;14.82;2.88;;;14.60;82.80;;;;;;5092207;28;20082;-88
2021/08/07 05:53:16;;;;;;;11.65;2.33;;;14.50;82.90;;;;;;5091194;28;20097;-89
2021/08/07 05:55:43;;;;;;;16.95;2.45;;;14.50;82.90;;;;;;5090907;28;20040;-90
2021/08/07 05:58:10;;;;;;;12.25;2.45;;;14.60;83.00;;;;;;5091422;28;20039;-90
2021/08/07 06:00:37;;;;;;;14.88;2.40;;;14.60;83.00;;;;;;5091817;28;20521;-88
2021/08/07 06:03:04;;;;;;;8.45;2.10;;;14.60;83.10;;;;;;5092639;28;20095;-87
2021/08/07 06:05:31;;;;;;;11.95;2.47;;;14.60;83.20;;;;;;5093000;28;20087;-89
2021/08/07 06:07:58;;;;;;;18.98;2.50;;;14.60;83.20;;;;;;5091737;28;20391;-87
2021/08/07 06:10:25;;;;;;;13.63;2.35;;;14.60;83.30;;;;;;5091779;28;20048;-88
2021/08/07 06:12:52;;;;;;;15.13;2.45;;;14.60;83.40;;;;;;5089125;28;20073;-87
2021/08/07 06:15:19;;;;;;;9.88;2.53;;;14.60;83.40;;;;;;5091468;28;20474;-88
2021/08/07 06:17:46;;;;;;;9.80;2.00;;;14.60;83.40;;;;;;5093309;28;20460;-89
2021/08/07 06:20:14;;;;;;;13.13;2.65;;;14.70;83.40;;;;;;5093247;28;20419;-91
2021/08/07 06:22:41;;;;;;;9.13;2.40;;;14.70;83.40;;;;;;5084935;28;20051;-90
2021/08/07 06:25:09;;;;;;;13.00;2.78;;;14.60;83.40;;;;;;5089350;28;20089;-87
2021/08/07 06:27:36;;;;;;;13.32;2.33;;;14.70;83.40;;;;;;5091114;28;20567;-87
2021/08/07 06:30:04;;;;;;;11.00;1.92;;;14.70;83.40;;;;;;5092744;28;20427;-87
2021/08/07 06:32:31;;;;;;;11.75;2.35;;;14.70;83.40;;;;;;5093580;28;20464;-89
2021/08/07 06:34:57;;;;;;;12.20;2.55;;;14.80;83.50;;;;;;5090126;28;20513;-90
2021/08/07 06:37:24;;;;;;;6.80;2.40;;;14.80;83.50;;;;;;5088900;28;20048;-90
2021/08/07 06:39:51;;;;;;;12.98;2.10;;;14.80;83.50;;;;;;5093245;28;20074;-90
2021/08/07 06:42:18;;;;;;;14.77;2.10;;;14.80;83.40;;;;;;5088867;28;20094;-88
2021/08/07 06:44:45;;;;;;;12.38;1.98;;;14.90;83.50;;;;;;5092935;28;20689;-90
2021/08/07 06:47:12;;;;;;;14.40;2.47;;;14.90;83.40;;;;;;5089211;28;20078;-89
2021/08/07 06:49:40;;;;;;;17.85;2.70;;;14.90;83.50;;;;;;5089745;28;20040;-89
2021/08/07 06:52:07;;;;;;;12.23;2.08;;;14.90;83.40;;;;;;5088997;28;20101;-89
2021/08/07 06:54:34;;;;;;;11.32;2.17;;;14.90;83.40;;;;;;5091252;28;20137;-90
2021/08/07 06:57:01;;;;;;;11.20;2.50;;;14.90;83.50;;;;;;5091731;28;20048;-89
2021/08/07 06:59:28;;;;;;;10.85;2.38;;;15.00;83.50;;;;;;5093243;28;20060;-91
2021/08/07 07:01:55;;;;;;;13.90;2.55;;;15.00;83.50;;;;;;5089044;28;20051;-89
2021/08/07 07:04:23;;;;;;;11.48;2.35;;;15.00;83.50;;;;;;5089722;28;20044;-88
2021/08/07 07:06:50;;;;;;;9.90;2.17;;;15.10;83.50;;;;;;5089164;28;20047;-89
2021/08/07 07:09:16;;;;;;;10.80;2.13;;;15.20;83.60;;;;;;5089993;28;20049;-89
2021/08/07 07:11:43;;;;;;;9.45;2.05;;;15.20;83.50;;;;;;5092515;28;20056;-88
2021/08/07 07:14:10;;;;;;;13.55;2.47;;;15.30;83.50;;;;;;5087269;28;20414;-90
2021/08/07 07:16:37;;;;;;;15.30;2.78;;;15.20;83.60;;;;;;5092339;28;20040;-89
2021/08/07 07:19:04;;;;;;;11.80;2.30;;;15.30;83.60;;;;;;5121140;27;20044;-86
2021/08/07 07:21:31;;;;;;;12.10;2.78;;;15.40;83.50;;;;;;5089172;28;20472;-88
2021/08/07 07:23:58;;;;;;;16.65;2.67;;;15.40;83.50;;;;;;5090258;28;20127;-88
2021/08/07 07:26:27;;;;;;;9.57;2.55;;;15.40;83.40;;;;;;5091799;28;20460;-88
2021/08/07 07:28:55;;;;;;;12.70;2.75;;;15.50;83.30;;;;;;5090382;28;20052;-86
2021/08/07 07:31:23;;;;;;;10.70;2.00;;;15.50;83.30;;;;;;5090045;28;20394;-86
2021/08/07 07:33:51;;;;;;;16.17;2.55;;;15.50;83.10;;;;;;5087968;28;20571;-86
2021/08/07 07:36:19;;;;;;;14.90;2.35;;;15.60;83.00;;;;;;5088980;28;20054;-89
2021/08/07 07:38:46;;;;;;;10.77;2.45;;;15.70;83.00;;;;;;5090395;28;20051;-90
2021/08/07 07:41:13;;;;;;;11.73;2.35;;;15.70;83.00;;;;;;5089037;28;20097;-87
2021/08/07 07:43:40;;;;;;;8.43;2.33;;;15.80;83.00;;;;;;5088033;28;20040;-88
2021/08/07 07:46:07;;;;;;;14.10;2.17;;;15.90;83.00;;;;;;5090112;28;20059;-88
2021/08/07 07:48:34;;;;;;;10.55;2.10;;;15.90;82.90;;;;;;5092715;28;20533;-86
2021/08/07 07:51:02;;;;;;;24.45;2.92;;;15.90;82.80;;;;;;5093713;28;20056;-86
2021/08/07 07:53:28;;;;;;;19.88;3.05;;;16.00;82.80;;;;;;5096592;28;20048;-89
2021/08/07 07:55:55;;;;;;;13.15;2.78;;;16.10;83.10;;;;;;5090512;28;20051;-89
2021/08/07 07:58:22;;;;;;;18.40;2.78;;;16.10;83.20;;;;;;5119727;27;20098;-87
2021/08/07 08:00:49;;;;;;;15.18;2.50;;;16.20;83.10;;;;;;5082720;28;20097;-85
2021/08/07 08:03:16;;;;;;;14.25;2.60;;;16.30;83.00;;;;;;5092229;28;20442;-87
2021/08/07 08:05:44;;;;;;;11.02;2.45;;;16.40;83.00;;;;;;5095380;28;20204;-88
2021/08/07 08:08:11;;;;;;;7.30;2.08;;;16.40;82.60;;;;;;5094504;28;20044;-88
2021/08/07 08:10:40;;;;;;;10.20;2.78;;;16.50;82.40;;;;;;5092222;28;20044;-88
2021/08/07 08:13:08;;;;;;;15.77;2.45;;;16.60;82.50;;;;;;5091587;28;20059;-89
2021/08/07 08:15:37;;;;;;;15.38;2.60;;;16.70;82.70;;;;;;5091774;28;20093;-89
2021/08/07 08:18:05;;;;;;;14.45;2.60;;;16.80;82.40;;;;;;5093275;28;20072;-87
2021/08/07 08:20:33;;;;;;;12.48;2.30;;;16.90;82.20;;;;;;5094593;28;20122;-88
2021/08/07 08:23:00;;;;;;;13.20;2.58;;;17.00;82.20;;;;;;5088551;28;20093;-90
2021/08/07 08:25:29;;;;;;;13.15;2.40;;;17.10;81.90;;;;;;5093405;28;20101;-85
2021/08/07 08:27:56;;;;;;;10.73;1.80;;;17.20;81.60;;;;;;5094432;28;20502;-89
2021/08/07 08:30:24;;;;;;;10.35;2.33;;;17.30;81.30;;;;;;5091923;28;20044;-88
2021/08/07 08:32:50;;;;;;;11.00;2.38;;;17.30;80.90;;;;;;5094860;28;20117;-86
2021/08/07 08:35:17;;;;;;;8.07;2.10;;;17.30;80.80;;;;;;5092975;28;20060;-85
2021/08/07 08:37:44;;;;;;;10.48;2.10;;;17.40;80.70;;;;;;5092802;28;20488;-88
2021/08/07 08:40:12;;;;;;;14.73;2.05;;;17.50;80.70;;;;;;5093058;28;20518;-86
2021/08/07 08:42:41;;;;;;;7.20;1.85;;;17.50;80.40;;;;;;5092834;28;20089;-85
2021/08/07 08:45:10;;;;;;;10.07;1.80;;;17.50;80.20;;;;;;5093536;28;20097;-88
2021/08/07 08:47:39;;;;;;;7.13;1.67;;;17.50;79.60;;;;;;5095382;28;20044;-87
2021/08/07 08:50:07;;;;;;;8.32;2.00;;;17.60;79.60;;;;;;5093173;28;20051;-88
2021/08/07 08:52:37;;;;;;;9.40;1.83;;;17.60;79.00;;;;;;5092962;28;20425;-89
2021/08/07 08:55:06;;;;;;;14.45;1.80;;;17.70;78.90;;;;;;5092114;28;20101;-91
2021/08/07 08:57:34;;;;;;;16.38;1.80;;;17.70;78.80;;;;;;5092099;28;20048;-85
2021/08/07 09:00:03;;;;;;;9.10;1.85;;;17.70;78.80;;;;;;5093501;28;20097;-88
2021/08/07 09:02:30;;;;;;;9.38;1.80;;;17.80;78.80;;;;;;5093768;28;20052;-86
2021/08/07 09:04:57;;;;;;;9.85;2.38;;;17.90;79.40;;;;;;5093008;28;20106;-88
2021/08/07 09:07:24;;;;;;;8.75;1.98;;;17.90;79.50;;;;;;5092313;28;20040;-87
2021/08/07 09:09:56;;;;;;;23.75;4.95;;;18.10;79.90;;;;;;5092772;28;20039;-88
2021/08/07 09:12:39;;;;;;;22.25;4.00;;;18.30;79.70;;;;;;5091412;28;20040;-90
2021/08/07 09:15:24;;;;;;;10.07;1.92;;;18.40;78.70;;;;;;5092727;28;20056;-91
2021/08/07 09:18:11;;;;;;;9.20;1.70;;;18.50;77.90;;;;;;5092936;28;20056;-88
2021/08/07 09:20:39;;;;;;;8.65;2.00;;;18.40;76.70;;;;;;5093322;28;20117;-88
2021/08/07 09:23:06;;;;;;;11.68;2.22;;;18.50;76.80;;;;;;5091078;28;20052;-88
2021/08/07 09:25:42;;;;;;;18.27;3.10;;;18.50;76.60;;;;;;5091368;28;20055;-88
2021/08/07 09:28:09;;;;;;;19.85;4.10;;;18.40;76.80;;;;;;5092530;28;20545;-88
2021/08/07 09:30:39;;;;;;;15.70;2.55;;;18.40;76.60;;;;;;5091473;28;20040;-89
2021/08/07 09:33:12;;;;;;;16.42;2.22;;;18.40;76.50;;;;;;5092203;28;20093;-88
2021/08/07 09:35:42;;;;;;;9.07;1.85;;;18.50;76.50;;;;;;5093944;28;20113;-90
2021/08/07 09:38:22;;;;;;;14.27;2.78;;;18.40;76.60;;;;;;5089577;28;20097;-87
2021/08/07 09:41:03;;;;;;;18.08;3.95;;;18.50;76.30;;;;;;5092147;28;20497;-87
2021/08/07 09:43:52;;;;;;;19.85;2.53;;;18.50;76.50;;;;;;5090857;28;20040;-87
2021/08/07 09:46:24;;;;;;;12.48;3.13;;;18.50;76.80;;;;;;5091906;28;20097;-86
2021/08/07 09:48:53;;;;;;;15.10;4.30;;;18.70;77.20;;;;;;5092091;28;20076;-88
2021/08/07 09:51:33;;;;;;;19.33;3.58;;;18.80;77.00;;;;;;5091786;28;20075;-87
2021/08/07 09:54:15;;;;;;;11.43;2.45;;;18.80;76.70;;;;;;5092035;28;20044;-87
2021/08/07 09:56:45;;;;;;;15.70;2.80;;;18.90;76.30;;;;;;5088765;28;20044;-86
2021/08/07 09:59:12;;;;;;;11.93;2.33;;;18.80;76.20;;;;;;5093394;28;20051;-87
2021/08/07 10:01:39;;;;;;;9.75;2.50;;;18.90;76.10;;;;;;5088382;28;20048;-88
2021/08/07 10:04:13;;;;;;;17.88;3.55;;;18.90;76.10;;;;;;5091719;28;20067;-89
2021/08/07 10:06:41;;;;;;;15.50;2.83;;;18.90;75.80;;;;;;5092788;28;20044;-87
2021/08/07 10:09:09;;;;;;;12.63;2.50;;;18.80;75.90;;;;;;5091257;28;20036;-85
2021/08/07 10:11:36;;;;;;;7.47;2.10;;;18.70;76.20;;;;;;5093860;28;20548;-85
2021/08/07 10:14:03;;;;;;;8.00;1.85;;;18.80;77.40;;;;;;5088897;28;20059;-88
2021/08/07 10:16:32;;;;;;;7.10;1.92;;;18.80;77.50;;;;;;5091684;28;20044;-88
2021/08/07 10:19:00;;;;;;;7.57;1.70;;;18.80;76.70;;;;;;5089103;28;20052;-88
2021/08/07 10:21:29;;;;;;;5.13;1.70;;;18.90;76.60;;;;;;5091576;28;20113;-88
2021/08/07 10:23:56;;;;;;;9.93;2.00;;;19.00;76.90;;;;;;5092093;28;20052;-88
2021/08/07 10:26:26;;;;;;;12.00;2.40;;;19.20;76.00;;;;;;5092129;28;20058;-88
2021/08/07 10:28:57;;;;;;;8.10;2.13;;;19.30;75.50;;;;;;5089417;28;20048;-89
2021/08/07 10:31:27;;;;;;;13.10;2.83;;;19.40;74.90;;;;;;5091327;28;20464;-89
2021/08/07 10:33:58;;;;;;;7.32;1.98;;;19.40;74.00;;;;;;5085542;28;20564;-88
2021/08/07 10:36:26;;;;;;;7.20;1.92;;;19.50;74.20;;;;;;5089915;28;20078;-87
2021/08/07 10:38:56;;;;;;;9.90;2.05;;;19.50;74.30;;;;;;5092633;28;20101;-90
2021/08/07 10:41:28;;;;;;;9.60;1.90;;;19.60;74.30;;;;;;5086633;28;20114;-91
2021/08/07 10:43:56;;;;;;;7.50;1.90;;;19.70;75.10;;;;;;5092720;28;20048;-88
2021/08/07 10:46:23;;;;;;;8.80;2.35;;;19.70;73.90;;;;;;5090908;28;20048;-89
2021/08/07 10:48:52;;;;;;;9.30;2.17;;;19.70;73.60;;;;;;5090629;28;20139;-89
2021/08/07 10:51:22;;;;;;;10.70;2.42;;;19.80;72.90;;;;;;5089902;28;20114;-86
2021/08/07 10:54:00;;;;;;;12.95;2.05;;;19.80;72.50;;;;;;5092764;28;20040;-86
2021/08/07 10:56:27;;;;;;;5.53;1.40;;;19.80;73.00;;;;;;5091360;28;20097;-88
2021/08/07 10:58:58;;;;;;;7.43;2.00;;;19.90;73.70;;;;;;5084843;28;20110;-92
2021/08/07 11:01:30;;;;;;;7.63;1.58;;;19.90;73.30;;;;;;5091462;28;20048;-89
2021/08/07 11:04:05;;;;;;;5.53;1.50;;;19.90;72.70;;;;;;5079338;28;20052;-87
2021/08/07 11:06:38;;;;;;;9.07;1.80;;;19.90;72.60;;;;;;5072644;28;20048;-91
2021/08/07 11:09:14;;;;;;;10.65;1.95;;;19.90;72.80;;;;;;5072837;28;20202;-90
2021/08/07 11:11:42;;;;;;;6.63;1.48;;;19.90;72.80;;;;;;5088284;28;20097;-87
2021/08/07 11:14:25;;;;;;;5.18;1.50;;;20.00;73.00;;;;;;5072032;28;20580;-90
2021/08/07 11:17:04;;;;;;;5.30;1.23;;;20.10;72.60;;;;;;5093604;28;20134;-88
2021/08/07 11:19:56;;;;;;;6.20;1.30;;;20.10;71.90;;;;;;5096999;28;20044;-88
2021/08/07 11:22:39;;;;;;;7.78;1.65;;;20.20;72.70;;;;;;5089700;28;20453;-88
2021/08/07 11:25:16;;;;;;;3.38;0.90;;;20.40;72.80;;;;;;5087808;28;20052;-85
2021/08/07 11:27:52;;;;;;;4.35;1.15;;;20.40;72.20;;;;;;5090059;28;20048;-91
2021/08/07 11:30:30;;;;;;;9.40;1.58;;;20.50;72.00;;;;;;5075020;28;20105;-88
2021/08/07 11:32:57;;;;;;;3.70;1.05;;;20.70;72.30;;;;;;5090488;28;20144;-88
2021/08/07 11:38:09;;;;;;;6.40;1.40;;;20.90;72.00;;;;;;5091210;28;20418;-88
2021/08/07 11:40:56;;;;;;;5.55;1.27;;;21.10;71.70;;;;;;5090320;28;20048;-91
2021/08/07 11:43:40;;;;;;;6.95;1.42;;;21.20;71.40;;;;;;5090119;28;20040;-88
2021/08/07 11:46:10;;;;;;;7.43;1.38;;;21.30;71.00;;;;;;5089796;28;20098;-88
2021/08/07 11:48:45;;;;;;;8.20;1.65;;;21.40;70.90;;;;;;5090239;28;20048;-86
2021/08/07 11:51:22;;;;;;;4.20;1.52;;;21.40;71.00;;;;;;5071770;28;20048;-92
2021/08/07 11:53:49;;;;;;;9.98;1.88;;;21.40;70.50;;;;;;5088447;28;20106;-87
2021/08/07 11:56:19;;;;;;;7.72;1.65;;;21.40;70.20;;;;;;5081677;28;20085;-88
2021/08/07 11:58:54;;;;;;;10.10;1.40;;;21.40;69.70;;;;;;5089119;28;20483;-88
2021/08/07 12:01:29;;;;;;;4.65;1.63;;;21.40;70.00;;;;;;5089985;28;20089;-88
2021/08/07 12:03:56;;;;;;;4.80;1.48;;;21.40;69.90;;;;;;5089722;28;20631;-90
2021/08/07 12:06:29;;;;;;;4.60;1.48;;;21.40;70.70;;;;;;5088355;28;20101;-88
2021/08/07 12:08:58;;;;;;;7.35;1.50;;;21.40;70.80;;;;;;5090520;28;20063;-90
2021/08/07 12:11:26;;;;;;;4.32;1.00;;;21.40;70.50;;;;;;5089902;28;20044;-89
2021/08/07 12:13:57;;;;;;;4.15;1.20;;;21.30;70.20;;;;;;5090324;28;20060;-88
2021/08/07 12:16:40;;;;;;;3.90;1.00;;;21.30;69.60;;;;;;5115443;28;20461;-91
2021/08/07 12:19:20;;;;;;;5.93;1.45;;;21.20;69.30;;;;;;5079651;28;20522;-88
2021/08/07 12:21:48;;;;;;;5.60;1.10;;;21.10;69.80;;;;;;5089632;28;20048;-87
2021/08/07 12:24:22;;;;;;;4.88;1.20;;;21.00;69.60;;;;;;5089474;28;20568;-88
2021/08/07 12:26:58;;;;;;;3.85;1.35;;;20.90;70.50;;;;;;5089420;28;20040;-90
2021/08/07 12:29:28;;;;;;;5.50;1.08;;;20.90;70.40;;;;;;5089291;28;20047;-87
2021/08/07 12:31:57;;;;;;;3.63;0.93;;;20.80;70.00;;;;;;5090891;28;20123;-88
2021/08/07 12:34:35;;;;;;;6.80;1.08;;;20.90;70.50;;;;;;5090320;28;20040;-88
2021/08/07 12:37:20;;;;;;;2.75;0.90;;;20.90;70.70;;;;;;5093319;28;20056;-92
2021/08/07 12:39:52;;;;;;;;;;;21.00;71.10;;;;;;5094408;28;20055;-92
2021/08/07 12:42:28;;;;;;;3.47;1.00;;;21.10;70.50;;;;;;5076360;28;19924;-89
2021/08/07 12:45:09;;;;;;;8.10;1.00;;;21.10;70.30;;;;;;5093793;28;20055;-89
2021/08/07 12:47:37;;;;;;;5.78;1.60;;;21.10;70.10;;;;;;5095514;28;20109;-90
2021/08/07 12:50:20;;;;;;;5.00;0.80;;;21.20;69.40;;;;;;5091572;28;20051;-88
2021/08/07 12:52:55;;;;;;;4.53;0.80;;;21.10;69.30;;;;;;5092759;28;20048;-90
2021/08/07 12:55:24;;;;;;;7.00;1.08;;;21.10;69.10;;;;;;5094110;28;20089;-90
2021/08/07 12:58:12;;;;;;;4.80;0.80;;;21.00;69.40;;;;;;5093820;28;20548;-90